Time;durP1;ratioP1;P1;durP2;ratioP2;P2;SDS_P1;SDS_P2;PMS_P1;PMS_P2;Temp;Humidity;BMP_temperature;BMP_pressure;BME280_temperature;BME280_humidity;BME280_pressure;Samples;Min_cycle;Max_cycle;Signal;HPM_P1;HPM_P2
2023/12/30 06:02:28;;;;;;;2.93;1.47;;;;;;;;;;5078807;23;20539;-73
2023/12/30 06:04:54;;;;;;;2.63;1.47;;;;;;;;;;5017162;28;20478;-73
2023/12/30 06:07:20;;;;;;;2.30;1.53;;;;;;;;;;5013747;28;20402;-73
2023/12/30 06:09:46;;;;;;;1.33;1.23;;;;;;;;;;5012722;28;20493;-73
2023/12/30 06:12:12;;;;;;;3.53;1.30;;;;;;;;;;4995136;28;20522;-74
2023/12/30 06:14:40;;;;;;;2.10;1.33;;;;;;;;;;4992827;28;20458;-74
2023/12/30 06:17:06;;;;;;;9.83;1.80;;;;;;;;;;4992474;28;20406;-74
2023/12/30 06:19:33;;;;;;;3.13;1.40;;;;;;;;;;4992450;28;20411;-74
2023/12/30 06:21:59;;;;;;;1.60;1.33;;;;;;;;;;4992349;28;20433;-74
2023/12/30 06:24:26;;;;;;;3.90;1.40;;;;;;;;;;5007392;28;20865;-74
2023/12/30 06:26:52;;;;;;;4.37;1.70;;;;;;;;;;4992263;28;20494;-74
2023/12/30 06:29:21;;;;;;;1.70;1.33;;;;;;;;;;4992274;28;20411;-74
2023/12/30 06:31:48;;;;;;;2.60;1.53;;;;;;;;;;4992119;28;20470;-75
2023/12/30 06:34:14;;;;;;;1.50;1.40;;;;;;;;;;4992336;28;20403;-73
2023/12/30 06:36:41;;;;;;;1.40;1.30;;;;;;;;;;4992368;28;20468;-74
2023/12/30 06:39:08;;;;;;;2.90;1.70;;;;;;;;;;4992278;28;20407;-73
2023/12/30 06:41:34;;;;;;;2.90;1.50;;;;;;;;;;4992168;28;20431;-73
2023/12/30 06:44:00;;;;;;;2.33;1.50;;;;;;;;;;4992123;28;20415;-73
2023/12/30 06:46:26;;;;;;;2.43;1.57;;;;;;;;;;4993941;28;20421;-74
2023/12/30 06:48:52;;;;;;;1.87;1.53;;;;;;;;;;4996161;28;20457;-74
2023/12/30 06:51:18;;;;;;;6.57;1.93;;;;;;;;;;4995765;28;20866;-74
2023/12/30 06:53:44;;;;;;;4.90;1.70;;;;;;;;;;4995709;28;20449;-74
2023/12/30 06:56:10;;;;;;;4.70;1.60;;;;;;;;;;5010598;28;20426;-74
2023/12/30 06:58:36;;;;;;;2.23;2.07;;;;;;;;;;4995866;28;20925;-73
2023/12/30 07:01:04;;;;;;;2.13;1.50;;;;;;;;;;4995386;28;20454;-74
2023/12/30 07:03:30;;;;;;;2.40;1.27;;;;;;;;;;4995500;28;20423;-74
2023/12/30 07:05:56;;;;;;;4.13;1.87;;;;;;;;;;4995597;28;20414;-74
2023/12/30 07:08:22;;;;;;;2.20;1.37;;;;;;;;;;4995697;28;20414;-75
2023/12/30 07:10:48;;;;;;;1.57;1.47;;;;;;;;;;4995315;28;20880;-74
2023/12/30 07:13:14;;;;;;;2.23;1.60;;;;;;;;;;4995386;28;20778;-74
2023/12/30 07:15:41;;;;;;;2.23;1.60;;;;;;;;;;4995504;28;20419;-73
2023/12/30 07:18:07;;;;;;;4.93;1.80;;;;;;;;;;4995639;28;20410;-73
2023/12/30 07:20:35;;;;;;;2.50;1.60;;;;;;;;;;4995756;28;20438;-74
2023/12/30 07:23:02;;;;;;;2.20;1.73;;;;;;;;;;4995350;28;20411;-74
2023/12/30 07:25:28;;;;;;;2.40;1.50;;;;;;;;;;4995153;28;20411;-74
2023/12/30 07:27:54;;;;;;;2.70;2.50;;;;;;;;;;4995283;28;20759;-73
2023/12/30 07:30:20;;;;;;;2.63;2.00;;;;;;;;;;4994941;28;20545;-73
2023/12/30 07:32:46;;;;;;;1.97;1.90;;;;;;;;;;4995065;28;20411;-73
2023/12/30 07:35:12;;;;;;;2.50;1.80;;;;;;;;;;4995043;28;21132;-73
2023/12/30 07:37:38;;;;;;;2.80;1.97;;;;;;;;;;4995006;28;20411;-73
2023/12/30 07:40:05;;;;;;;3.13;1.40;;;;;;;;;;4994870;28;20510;-73
2023/12/30 07:42:31;;;;;;;4.00;2.17;;;;;;;;;;4994717;28;20439;-73
2023/12/30 07:44:57;;;;;;;3.50;2.00;;;;;;;;;;4994893;28;20506;-73
2023/12/30 07:47:25;;;;;;;8.30;2.43;;;;;;;;;;4994857;28;20554;-73
2023/12/30 07:49:51;;;;;;;4.43;1.60;;;;;;;;;;4994653;28;20415;-73
2023/12/30 07:52:17;;;;;;;3.60;1.90;;;;;;;;;;4994964;28;20465;-73
2023/12/30 07:54:42;;;;;;;8.03;4.23;;;;;;;;;;4994746;28;20832;-73
2023/12/30 07:57:08;;;;;;;9.10;2.90;;;;;;;;;;4994502;28;20922;-73
2023/12/30 07:59:34;;;;;;;8.40;3.10;;;;;;;;;;4994703;28;20408;-73
2023/12/30 08:02:00;;;;;;;3.17;2.60;;;;;;;;;;4994942;28;20922;-73
2023/12/30 08:04:26;;;;;;;4.47;3.00;;;;;;;;;;4995283;28;20989;-74
2023/12/30 08:06:54;;;;;;;5.23;2.70;;;;;;;;;;4994221;28;20419;-74
2023/12/30 08:09:19;;;;;;;2.10;1.80;;;;;;;;;;4993780;28;20419;-74
2023/12/30 08:11:45;;;;;;;4.40;2.60;;;;;;;;;;4994065;28;20874;-74
2023/12/30 08:14:13;;;;;;;2.53;1.67;;;;;;;;;;4994205;28;20470;-74
2023/12/30 08:16:39;;;;;;;3.30;1.90;;;;;;;;;;4994193;28;20931;-74
2023/12/30 08:19:05;;;;;;;6.80;2.70;;;;;;;;;;4992647;28;20419;-73
2023/12/30 08:21:31;;;;;;;2.67;2.10;;;;;;;;;;4994280;28;20470;-73
2023/12/30 08:23:58;;;;;;;2.23;1.73;;;;;;;;;;4983576;28;20831;-74
2023/12/30 08:26:25;;;;;;;4.30;2.03;;;;;;;;;;4987308;28;20784;-73
2023/12/30 08:28:51;;;;;;;3.50;2.07;;;;;;;;;;4992455;28;20427;-73
2023/12/30 08:31:18;;;;;;;3.50;2.47;;;;;;;;;;4992371;28;20565;-73
2023/12/30 08:33:44;;;;;;;4.17;2.23;;;;;;;;;;4994327;28;20418;-73
2023/12/30 08:36:10;;;;;;;4.60;2.50;;;;;;;;;;4993639;28;20494;-73
2023/12/30 08:38:36;;;;;;;2.00;1.90;;;;;;;;;;4993829;28;20505;-74
2023/12/30 08:41:02;;;;;;;3.93;2.30;;;;;;;;;;4993349;28;20450;-74
2023/12/30 08:43:31;;;;;;;4.27;2.10;;;;;;;;;;4992176;28;20419;-73
2023/12/30 08:45:57;;;;;;;5.30;1.90;;;;;;;;;;4993673;28;20481;-72
2023/12/30 08:48:23;;;;;;;8.30;2.77;;;;;;;;;;4993787;28;20408;-72
2023/12/30 08:50:49;;;;;;;4.83;2.27;;;;;;;;;;4993614;28;20830;-73
2023/12/30 08:53:18;;;;;;;4.17;2.33;;;;;;;;;;4992242;28;20691;-73
2023/12/30 08:55:44;;;;;;;3.60;2.47;;;;;;;;;;4993734;28;20406;-72
2023/12/30 08:58:10;;;;;;;3.60;1.80;;;;;;;;;;4993760;28;20526;-73
2023/12/30 09:00:36;;;;;;;3.23;2.10;;;;;;;;;;4991979;28;20573;-73
2023/12/30 09:03:02;;;;;;;4.10;2.30;;;;;;;;;;4993882;28;20423;-72
2023/12/30 09:05:28;;;;;;;5.30;2.17;;;;;;;;;;4993473;28;20513;-73
2023/12/30 09:07:54;;;;;;;4.13;1.90;;;;;;;;;;4991753;28;21099;-73
2023/12/30 09:10:20;;;;;;;2.57;2.03;;;;;;;;;;4993037;28;20482;-73
2023/12/30 09:12:46;;;;;;;2.90;2.37;;;;;;;;;;4993268;28;20411;-73
2023/12/30 09:15:12;;;;;;;2.40;2.13;;;;;;;;;;4993298;28;20422;-73
2023/12/30 09:17:38;;;;;;;2.77;2.17;;;;;;;;;;4993113;28;20903;-73
2023/12/30 09:20:04;;;;;;;6.43;3.50;;;;;;;;;;4993201;28;20469;-73
2023/12/30 09:22:30;;;;;;;3.20;2.17;;;;;;;;;;4994207;28;20435;-73
2023/12/30 09:24:56;;;;;;;2.40;1.80;;;;;;;;;;4993761;28;20423;-73
2023/12/30 09:27:23;;;;;;;2.33;1.97;;;;;;;;;;4993665;28;20419;-73
2023/12/30 09:29:49;;;;;;;1.53;1.43;;;;;;;;;;4993144;28;20964;-73
2023/12/30 09:32:15;;;;;;;2.20;1.50;;;;;;;;;;4993054;28;20942;-73
2023/12/30 09:34:41;;;;;;;1.90;1.30;;;;;;;;;;4993153;28;20434;-73
2023/12/30 09:37:07;;;;;;;2.27;1.70;;;;;;;;;;4993039;28;20442;-73
2023/12/30 09:39:33;;;;;;;1.97;1.47;;;;;;;;;;4992966;28;20470;-73
2023/12/30 09:41:59;;;;;;;1.57;1.47;;;;;;;;;;4992941;28;20477;-73
2023/12/30 09:44:25;;;;;;;2.33;1.80;;;;;;;;;;4992751;28;20433;-73
2023/12/30 09:46:54;;;;;;;2.13;1.50;;;;;;;;;;4993373;28;20407;-73
2023/12/30 09:49:20;;;;;;;1.70;1.60;;;;;;;;;;4991640;28;20423;-73
2023/12/30 09:51:46;;;;;;;1.50;1.40;;;;;;;;;;4992796;28;20985;-73
2023/12/30 09:54:12;;;;;;;3.80;1.83;;;;;;;;;;4992758;28;20415;-73
2023/12/30 09:56:41;;;;;;;1.80;1.30;;;;;;;;;;4993041;28;20952;-73
2023/12/30 09:59:07;;;;;;;1.97;1.50;;;;;;;;;;4993040;28;20862;-73
2023/12/30 10:01:33;;;;;;;2.70;1.50;;;;;;;;;;4991299;28;20558;-73
2023/12/30 10:04:00;;;;;;;1.27;1.20;;;;;;;;;;4992523;28;20720;-73
2023/12/30 10:06:26;;;;;;;2.70;1.43;;;;;;;;;;4992998;28;20887;-73
2023/12/30 10:08:52;;;;;;;1.63;1.27;;;;;;;;;;4992933;28;20607;-73
2023/12/30 10:11:18;;;;;;;1.73;1.30;;;;;;;;;;4992505;28;20469;-73
2023/12/30 10:13:44;;;;;;;1.47;1.17;;;;;;;;;;4992502;28;20414;-73
2023/12/30 10:16:11;;;;;;;1.90;1.47;;;;;;;;;;4992896;28;20416;-73
2023/12/30 10:18:38;;;;;;;4.80;1.70;;;;;;;;;;4993050;28;20465;-73
2023/12/30 10:21:04;;;;;;;2.30;1.20;;;;;;;;;;4995667;28;20441;-73
2023/12/30 10:23:31;;;;;;;4.10;1.63;;;;;;;;;;4996569;28;20407;-74
2023/12/30 10:25:57;;;;;;;2.00;1.30;;;;;;;;;;4997670;28;20415;-73
2023/12/30 10:28:23;;;;;;;1.50;1.30;;;;;;;;;;4997188;28;20450;-73
2023/12/30 10:31:00;;;;;;;4.50;1.47;;;;;;;;;;4996587;28;20458;-74
2023/12/30 10:33:26;;;;;;;3.57;1.60;;;;;;;;;;4996088;28;20414;-73
2023/12/30 10:35:51;;;;;;;8.30;2.80;;;;;;;;;;4996253;28;20869;-73
2023/12/30 10:38:18;;;;;;;3.70;2.03;;;;;;;;;;4996379;28;20780;-74
2023/12/30 10:40:44;;;;;;;1.60;1.50;;;;;;;;;;4994865;28;20447;-74
2023/12/30 10:43:10;;;;;;;7.50;3.67;;;;;;;;;;5003361;28;20417;-74
2023/12/30 10:45:37;;;;;;;3.53;1.70;;;;;;;;;;4996804;28;20502;-74
2023/12/30 10:48:05;;;;;;;2.30;1.03;;;;;;;;;;4997273;28;20414;-75
2023/12/30 10:50:31;;;;;;;4.20;1.30;;;;;;;;;;4996443;28;20466;-78
2023/12/30 10:53:02;;;;;;;1.33;1.10;;;;;;;;;;4996481;28;21002;-74
2023/12/30 10:55:32;;;;;;;1.33;1.10;;;;;;;;;;4996515;28;20421;-72
2023/12/30 10:58:13;;;;;;;2.53;1.20;;;;;;;;;;4996276;28;20407;-72
2023/12/30 11:00:40;;;;;;;1.30;1.20;;;;;;;;;;4995765;28;20529;-73
2023/12/30 11:03:07;;;;;;;1.53;1.20;;;;;;;;;;4995514;28;20415;-73
2023/12/30 11:05:36;;;;;;;1.27;1.17;;;;;;;;;;4994115;28;20431;-73
2023/12/30 11:08:03;;;;;;;1.17;0.90;;;;;;;;;;4995761;28;20410;-74
2023/12/30 11:10:29;;;;;;;2.20;1.00;;;;;;;;;;4996054;28;20470;-71
2023/12/30 11:12:55;;;;;;;3.80;1.13;;;;;;;;;;4995340;28;20498;-71
2023/12/30 11:15:22;;;;;;;1.13;1.00;;;;;;;;;;4995450;28;20411;-72
2023/12/30 11:17:49;;;;;;;3.43;0.97;;;;;;;;;;4995463;28;20407;-72
2023/12/30 11:20:23;;;;;;;1.57;0.90;;;;;;;;;;4995687;28;20922;-73
2023/12/30 11:22:49;;;;;;;2.53;0.90;;;;;;;;;;4994100;28;20961;-73
2023/12/30 11:25:15;;;;;;;1.40;1.10;;;;;;;;;;4994056;28;20415;-73
2023/12/30 11:27:41;;;;;;;1.57;1.10;;;;;;;;;;4995277;28;20418;-73
2023/12/30 11:30:16;;;;;;;3.27;1.10;;;;;;;;;;4995107;28;20426;-73
2023/12/30 11:32:42;;;;;;;0.90;0.80;;;;;;;;;;4994477;28;20410;-73
2023/12/30 11:35:08;;;;;;;2.50;0.93;;;;;;;;;;4994251;28;20400;-74
2023/12/30 11:37:35;;;;;;;2.10;1.10;;;;;;;;;;4995386;28;20433;-74
2023/12/30 11:40:03;;;;;;;2.10;0.90;;;;;;;;;;4993320;28;20431;-73
2023/12/30 11:42:29;;;;;;;0.80;0.70;;;;;;;;;;4993024;28;20455;-72
2023/12/30 11:44:55;;;;;;;0.90;0.80;;;;;;;;;;4994058;28;20841;-72
2023/12/30 11:47:25;;;;;;;2.50;1.07;;;;;;;;;;4993877;28;20421;-72
2023/12/30 11:50:00;;;;;;;1.03;0.90;;;;;;;;;;4993156;28;20411;-72
2023/12/30 11:52:26;;;;;;;1.20;0.90;;;;;;;;;;4994686;28;20430;-72
2023/12/30 11:54:52;;;;;;;1.00;0.90;;;;;;;;;;4994812;28;20409;-72
2023/12/30 11:57:18;;;;;;;0.93;0.83;;;;;;;;;;4993393;28;20415;-72
2023/12/30 11:59:44;;;;;;;1.57;1.10;;;;;;;;;;4994554;28;20566;-73
2023/12/30 12:02:15;;;;;;;1.73;1.33;;;;;;;;;;4994295;28;20451;-71
2023/12/30 12:04:42;;;;;;;1.90;1.20;;;;;;;;;;4994574;28;20477;-72
2023/12/30 12:07:08;;;;;;;1.30;1.20;;;;;;;;;;4994405;28;20415;-71
2023/12/30 12:09:34;;;;;;;1.83;1.20;;;;;;;;;;4994556;28;20773;-71
2023/12/30 12:12:01;;;;;;;1.00;0.97;;;;;;;;;;4992943;28;20520;-72
2023/12/30 12:14:29;;;;;;;4.63;1.10;;;;;;;;;;4994462;28;20918;-72
2023/12/30 12:16:57;;;;;;;1.23;1.00;;;;;;;;;;4994200;28;20559;-71
2023/12/30 12:19:25;;;;;;;2.17;1.07;;;;;;;;;;4994107;28;20449;-72
2023/12/30 12:21:51;;;;;;;2.30;1.27;;;;;;;;;;4994100;28;20431;-71
2023/12/30 12:24:17;;;;;;;0.97;0.80;;;;;;;;;;4994233;28;20498;-71
2023/12/30 12:26:43;;;;;;;3.27;1.10;;;;;;;;;;4994006;28;20422;-71
2023/12/30 12:29:09;;;;;;;1.23;1.10;;;;;;;;;;4993935;28;20407;-72
2023/12/30 12:31:35;;;;;;;2.30;1.10;;;;;;;;;;4993662;28;20517;-72
2023/12/30 12:34:19;;;;;;;0.90;0.80;;;;;;;;;;4993709;28;20407;-72
2023/12/30 12:36:45;;;;;;;1.00;1.00;;;;;;;;;;4994210;28;20418;-72
2023/12/30 12:39:11;;;;;;;2.97;1.30;;;;;;;;;;4993962;28;20837;-72
2023/12/30 12:41:38;;;;;;;1.13;1.10;;;;;;;;;;4990966;28;20462;-73
2023/12/30 12:44:04;;;;;;;6.07;1.20;;;;;;;;;;4990049;28;20434;-73
2023/12/30 12:46:30;;;;;;;1.37;1.10;;;;;;;;;;4993603;28;20419;-72
2023/12/30 12:48:57;;;;;;;1.77;1.20;;;;;;;;;;4993268;28;20898;-73
2023/12/30 12:51:23;;;;;;;1.00;0.90;;;;;;;;;;4993392;28;20497;-72
2023/12/30 12:53:49;;;;;;;1.33;1.27;;;;;;;;;;4993519;28;20458;-72
2023/12/30 12:56:15;;;;;;;1.00;0.97;;;;;;;;;;4993266;28;20412;-71
2023/12/30 12:58:41;;;;;;;7.70;1.30;;;;;;;;;;4985459;28;20554;-72
2023/12/30 13:01:08;;;;;;;3.30;1.53;;;;;;;;;;4991812;28;20462;-72
2023/12/30 13:03:34;;;;;;;1.37;1.00;;;;;;;;;;4992989;28;20429;-72
2023/12/30 13:06:10;;;;;;;1.97;1.87;;;;;;;;;;4993421;28;20507;-72
2023/12/30 13:08:36;;;;;;;1.50;1.00;;;;;;;;;;4993243;28;20861;-73
2023/12/30 13:11:02;;;;;;;1.20;0.93;;;;;;;;;;4993043;28;20475;-72
2023/12/30 13:13:29;;;;;;;2.53;1.10;;;;;;;;;;4980715;28;20434;-73
2023/12/30 13:15:58;;;;;;;2.00;1.17;;;;;;;;;;4973679;28;20424;-73
2023/12/30 13:18:25;;;;;;;1.10;1.00;;;;;;;;;;4985578;28;20510;-73
2023/12/30 13:20:51;;;;;;;1.30;1.20;;;;;;;;;;4992983;28;20435;-72
2023/12/30 13:23:17;;;;;;;3.13;0.97;;;;;;;;;;4992631;28;20427;-73
2023/12/30 13:25:43;;;;;;;1.17;1.10;;;;;;;;;;4993023;28;20785;-73
2023/12/30 13:28:10;;;;;;;3.03;1.00;;;;;;;;;;4992873;28;20423;-73
2023/12/30 13:30:36;;;;;;;1.03;0.90;;;;;;;;;;4989762;28;20471;-72
2023/12/30 13:33:05;;;;;;;2.20;1.10;;;;;;;;;;4989772;28;20493;-72
2023/12/30 13:35:36;;;;;;;4.47;1.23;;;;;;;;;;4992560;28;20953;-72
2023/12/30 13:38:11;;;;;;;1.27;1.20;;;;;;;;;;4992509;28;20419;-72
2023/12/30 13:40:38;;;;;;;1.83;1.00;;;;;;;;;;4992198;28;20521;-72
2023/12/30 13:43:07;;;;;;;1.23;1.07;;;;;;;;;;4992291;28;20419;-73
2023/12/30 13:45:35;;;;;;;3.70;1.20;;;;;;;;;;4992608;28;20499;-72
2023/12/30 13:50:36;;;;;;;1.33;1.10;;;;;;;;;;4992505;28;20471;-71
2023/12/30 13:53:03;;;;;;;1.93;1.00;;;;;;;;;;4992351;28;20965;-71
2023/12/30 13:55:33;;;;;;;1.53;1.03;;;;;;;;;;4992174;28;20419;-72
2023/12/30 13:58:01;;;;;;;4.13;1.50;;;;;;;;;;4992639;28;20423;-72
2023/12/30 14:00:27;;;;;;;5.27;1.57;;;;;;;;;;4992020;28;20415;-71
2023/12/30 14:02:54;;;;;;;3.13;1.37;;;;;;;;;;4993037;28;20418;-71
2023/12/30 14:05:28;;;;;;;1.00;0.90;;;;;;;;;;4992717;28;20477;-72
2023/12/30 14:08:00;;;;;;;3.23;1.40;;;;;;;;;;4992821;28;20480;-74
2023/12/30 14:10:26;;;;;;;1.37;1.07;;;;;;;;;;4991705;28;20481;-73
2023/12/30 14:13:00;;;;;;;1.10;1.00;;;;;;;;;;4992881;28;20481;-74
2023/12/30 14:15:26;;;;;;;3.03;1.23;;;;;;;;;;4993646;28;20410;-75
2023/12/30 14:17:52;;;;;;;3.53;1.37;;;;;;;;;;4993066;28;20415;-72
2023/12/30 14:20:18;;;;;;;1.50;1.30;;;;;;;;;;4991810;28;20412;-74
2023/12/30 14:22:44;;;;;;;2.10;1.10;;;;;;;;;;4993242;28;20419;-72
2023/12/30 14:25:11;;;;;;;2.37;1.30;;;;;;;;;;4992375;28;20422;-70
2023/12/30 14:27:38;;;;;;;1.93;1.20;;;;;;;;;;4992280;28;20441;-69
2023/12/30 14:30:05;;;;;;;5.33;2.67;;;;;;;;;;4992015;28;20415;-69
2023/12/30 14:32:32;;;;;;;2.33;1.47;;;;;;;;;;4991990;28;20431;-70
2023/12/30 14:34:58;;;;;;;2.83;1.40;;;;;;;;;;4992433;28;20786;-75
2023/12/30 14:37:24;;;;;;;1.47;1.10;;;;;;;;;;4992329;28;20412;-73
2023/12/30 14:39:50;;;;;;;1.30;1.20;;;;;;;;;;4992413;28;20406;-73
2023/12/30 14:42:17;;;;;;;2.60;1.30;;;;;;;;;;4992191;28;20485;-73
2023/12/30 14:44:43;;;;;;;1.30;1.20;;;;;;;;;;4992351;28;20407;-72
2023/12/30 14:47:09;;;;;;;5.00;1.57;;;;;;;;;;4992311;28;20426;-73
2023/12/30 14:49:35;;;;;;;2.10;1.33;;;;;;;;;;4990947;28;20414;-74
2023/12/30 14:52:01;;;;;;;2.10;1.20;;;;;;;;;;4993870;28;20462;-79
2023/12/30 14:54:26;;;;;;;1.47;1.43;;;;;;;;;;4992933;28;20773;-76
2023/12/30 14:56:53;;;;;;;2.67;1.10;;;;;;;;;;4992975;28;20836;-72
2023/12/30 14:59:19;;;;;;;1.77;1.30;;;;;;;;;;4992755;28;20493;-72
2023/12/30 15:01:45;;;;;;;2.67;1.37;;;;;;;;;;4992636;28;20821;-72
2023/12/30 15:04:11;;;;;;;2.20;1.43;;;;;;;;;;4992619;28;20502;-72
2023/12/30 15:06:37;;;;;;;2.43;1.77;;;;;;;;;;4992737;28;20819;-73
2023/12/30 15:09:06;;;;;;;2.30;1.80;;;;;;;;;;4995750;28;20407;-72
2023/12/30 15:11:34;;;;;;;1.50;1.30;;;;;;;;;;4995537;28;20692;-72
2023/12/30 15:14:01;;;;;;;4.20;1.40;;;;;;;;;;4995274;28;20486;-73
2023/12/30 15:16:28;;;;;;;2.40;1.40;;;;;;;;;;4995531;28;20494;-73
2023/12/30 15:18:53;;;;;;;4.90;1.80;;;;;;;;;;4995805;28;20411;-73
2023/12/30 15:21:19;;;;;;;1.23;1.20;;;;;;;;;;4995762;28;20430;-73
2023/12/30 15:23:45;;;;;;;9.13;1.80;;;;;;;;;;4997924;28;20839;-72
2023/12/30 15:26:11;;;;;;;1.80;1.27;;;;;;;;;;4996182;28;20429;-73
2023/12/30 15:28:37;;;;;;;2.13;1.40;;;;;;;;;;4995703;28;20534;-73
2023/12/30 15:31:03;;;;;;;3.83;1.87;;;;;;;;;;4995529;28;20530;-72
2023/12/30 15:33:30;;;;;;;1.63;1.60;;;;;;;;;;4995291;28;20411;-73
2023/12/30 15:35:57;;;;;;;2.97;1.40;;;;;;;;;;4995337;28;20408;-72
2023/12/30 15:38:24;;;;;;;1.93;1.70;;;;;;;;;;4995274;28;20413;-73
2023/12/30 15:40:50;;;;;;;2.40;2.03;;;;;;;;;;4995407;28;20435;-73
2023/12/30 15:43:16;;;;;;;3.47;1.80;;;;;;;;;;4995021;28;20474;-72
2023/12/30 15:45:42;;;;;;;2.73;1.30;;;;;;;;;;4995249;28;20411;-73
2023/12/30 15:48:08;;;;;;;5.13;2.00;;;;;;;;;;4995101;28;20957;-72
2023/12/30 15:50:34;;;;;;;3.93;1.73;;;;;;;;;;4994995;28;20553;-73
2023/12/30 15:53:00;;;;;;;2.97;2.00;;;;;;;;;;4994616;28;20841;-72
2023/12/30 15:55:26;;;;;;;4.83;2.13;;;;;;;;;;4994874;28;20413;-73
2023/12/30 15:57:52;;;;;;;5.13;2.37;;;;;;;;;;4994733;28;20415;-73
2023/12/30 16:00:18;;;;;;;2.50;2.23;;;;;;;;;;4994604;28;20407;-73
2023/12/30 16:02:45;;;;;;;7.40;1.80;;;;;;;;;;4994585;28;20434;-72
2023/12/30 16:05:11;;;;;;;4.40;1.97;;;;;;;;;;4994782;28;20410;-74
2023/12/30 16:07:37;;;;;;;8.07;2.20;;;;;;;;;;4994830;28;20407;-73
2023/12/30 16:10:04;;;;;;;6.77;2.90;;;;;;;;;;4994553;28;20516;-72
2023/12/30 16:12:30;;;;;;;6.70;2.40;;;;;;;;;;4994380;28;20430;-73
2023/12/30 16:14:56;;;;;;;7.63;2.93;;;;;;;;;;4994534;28;20910;-73
2023/12/30 16:17:22;;;;;;;5.37;2.70;;;;;;;;;;4994617;28;20461;-72
2023/12/30 16:19:48;;;;;;;5.50;2.83;;;;;;;;;;4994764;28;20490;-72
2023/12/30 16:22:14;;;;;;;3.57;2.40;;;;;;;;;;4994406;28;20441;-73
2023/12/30 16:24:41;;;;;;;4.43;2.93;;;;;;;;;;4994473;28;20411;-73
2023/12/30 16:27:07;;;;;;;3.47;2.37;;;;;;;;;;4994441;28;20899;-72
2023/12/30 16:29:40;;;;;;;4.90;2.53;;;;;;;;;;4994289;28;20507;-72
2023/12/30 16:32:06;;;;;;;6.07;2.40;;;;;;;;;;4993930;28;20475;-73
2023/12/30 16:34:32;;;;;;;6.77;2.30;;;;;;;;;;4993078;28;20827;-74
2023/12/30 16:36:58;;;;;;;4.10;2.33;;;;;;;;;;4994494;28;20407;-74
2023/12/30 16:39:24;;;;;;;7.67;2.57;;;;;;;;;;4994012;28;20418;-73
2023/12/30 16:41:51;;;;;;;3.53;2.10;;;;;;;;;;4994020;28;20510;-73
2023/12/30 16:44:17;;;;;;;3.87;2.53;;;;;;;;;;4993934;28;20415;-73
2023/12/30 16:46:42;;;;;;;6.10;2.33;;;;;;;;;;4993815;28;20432;-73
2023/12/30 16:49:08;;;;;;;4.50;2.00;;;;;;;;;;4993942;28;20450;-72
2023/12/30 16:51:36;;;;;;;5.60;2.70;;;;;;;;;;4993328;28;20510;-72
2023/12/30 16:54:02;;;;;;;2.30;2.13;;;;;;;;;;4993486;28;20403;-74
2023/12/30 16:56:28;;;;;;;3.47;2.37;;;;;;;;;;4993558;28;20514;-73
2023/12/30 16:58:58;;;;;;;3.93;2.40;;;;;;;;;;4993499;28;20407;-73
2023/12/30 17:01:24;;;;;;;3.10;2.40;;;;;;;;;;4993478;28;20461;-73
2023/12/30 17:03:50;;;;;;;4.40;3.03;;;;;;;;;;4991926;28;20462;-74
2023/12/30 17:06:16;;;;;;;6.67;3.20;;;;;;;;;;4992106;28;20481;-74
2023/12/30 17:08:42;;;;;;;5.23;3.03;;;;;;;;;;4993267;28;20445;-74
2023/12/30 17:11:08;;;;;;;13.97;3.60;;;;;;;;;;4993464;28;20470;-73
2023/12/30 17:13:34;;;;;;;4.23;3.33;;;;;;;;;;4993242;28;20461;-74
2023/12/30 17:16:00;;;;;;;4.80;3.37;;;;;;;;;;4993106;28;20411;-75
2023/12/30 17:18:26;;;;;;;5.53;3.33;;;;;;;;;;4993470;28;20403;-74
2023/12/30 17:20:52;;;;;;;7.20;3.77;;;;;;;;;;4993703;28;20768;-73
2023/12/30 17:23:18;;;;;;;9.80;3.40;;;;;;;;;;4991734;28;20415;-72
2023/12/30 17:25:44;;;;;;;8.33;3.27;;;;;;;;;;4993109;28;20956;-73
2023/12/30 17:28:10;;;;;;;7.83;3.07;;;;;;;;;;4993275;28;20418;-72
2023/12/30 17:30:36;;;;;;;4.80;3.07;;;;;;;;;;4992251;28;20471;-73
2023/12/30 17:33:02;;;;;;;5.20;3.10;;;;;;;;;;4993326;28;20411;-76
2023/12/30 17:35:28;;;;;;;5.90;3.30;;;;;;;;;;4993153;28;20518;-75
2023/12/30 17:37:54;;;;;;;9.60;4.13;;;;;;;;;;4992828;28;20497;-74
2023/12/30 17:40:20;;;;;;;5.60;3.20;;;;;;;;;;4992865;28;20478;-75
2023/12/30 17:42:47;;;;;;;5.03;3.70;;;;;;;;;;4991594;28;20457;-74
2023/12/30 17:45:14;;;;;;;9.50;4.37;;;;;;;;;;4992839;28;20421;-73
2023/12/30 17:47:40;;;;;;;9.40;5.00;;;;;;;;;;4992910;28;20502;-74
2023/12/30 17:50:09;;;;;;;9.00;5.43;;;;;;;;;;4992568;28;20450;-71
2023/12/30 17:52:36;;;;;;;7.90;4.43;;;;;;;;;;4991632;28;20446;-71
2023/12/30 17:55:02;;;;;;;6.67;4.30;;;;;;;;;;4992868;28;20449;-71
2023/12/30 17:57:28;;;;;;;9.00;4.23;;;;;;;;;;4992494;28;20776;-72
2023/12/30 17:59:54;;;;;;;9.93;5.00;;;;;;;;;;4984052;28;20550;-73
2023/12/30 18:02:20;;;;;;;13.53;4.57;;;;;;;;;;4988726;28;20462;-73
2023/12/30 18:04:46;;;;;;;9.17;4.60;;;;;;;;;;4992846;28;20423;-72
2023/12/30 18:07:12;;;;;;;11.47;6.20;;;;;;;;;;4992879;28;20415;-72
2023/12/30 18:09:38;;;;;;;6.53;4.50;;;;;;;;;;4992937;28;20506;-73
2023/12/30 18:12:05;;;;;;;8.03;5.00;;;;;;;;;;4991297;28;21050;-73
2023/12/30 18:14:31;;;;;;;12.57;6.23;;;;;;;;;;4991017;28;20422;-74
2023/12/30 18:16:57;;;;;;;13.90;5.90;;;;;;;;;;4983401;28;20424;-74
2023/12/30 18:19:23;;;;;;;10.00;6.60;;;;;;;;;;4981325;28;20412;-71
2023/12/30 18:21:49;;;;;;;15.10;6.20;;;;;;;;;;4996546;23;20497;-76
2023/12/30 18:24:16;;;;;;;14.70;6.10;;;;;;;;;;4973758;28;20483;-75
2023/12/30 18:26:42;;;;;;;12.60;6.50;;;;;;;;;;4974308;28;20498;-76
2023/12/30 18:29:08;;;;;;;12.97;6.37;;;;;;;;;;4974167;28;20404;-77
2023/12/30 18:31:34;;;;;;;15.63;7.07;;;;;;;;;;4975996;28;20463;-78
2023/12/30 18:34:00;;;;;;;14.60;7.87;;;;;;;;;;4992918;28;20465;-79
2023/12/30 18:36:26;;;;;;;15.40;7.27;;;;;;;;;;4991963;28;20475;-78
2023/12/30 18:38:52;;;;;;;16.63;7.10;;;;;;;;;;4967759;28;20409;-76
2023/12/30 18:41:18;;;;;;;15.47;6.87;;;;;;;;;;4958977;28;20951;-76
2023/12/30 18:43:44;;;;;;;17.97;7.13;;;;;;;;;;4958779;28;20413;-76
2023/12/30 18:46:10;;;;;;;18.20;8.13;;;;;;;;;;4957749;28;20433;-76
2023/12/30 18:48:36;;;;;;;13.23;7.30;;;;;;;;;;4960136;28;20475;-78
2023/12/30 18:51:02;;;;;;;11.27;6.77;;;;;;;;;;4960092;28;20980;-77
2023/12/30 18:53:28;;;;;;;16.40;8.27;;;;;;;;;;4957815;28;20904;-76
2023/12/30 18:55:54;;;;;;;11.50;6.53;;;;;;;;;;4961454;28;20772;-78
2023/12/30 18:58:21;;;;;;;12.90;6.27;;;;;;;;;;4960110;28;20415;-76
2023/12/30 19:00:49;;;;;;;11.90;6.50;;;;;;;;;;4960030;28;20944;-76
2023/12/30 19:03:15;;;;;;;14.50;7.53;;;;;;;;;;4959986;28;20416;-76
2023/12/30 19:05:40;;;;;;;13.87;7.37;;;;;;;;;;4967947;28;20423;-78
2023/12/30 19:08:06;;;;;;;13.37;7.60;;;;;;;;;;4974545;28;20442;-77
2023/12/30 19:10:32;;;;;;;21.63;8.73;;;;;;;;;;4978924;28;20839;-76
2023/12/30 19:12:58;;;;;;;19.83;7.20;;;;;;;;;;4980843;28;20538;-76
2023/12/30 19:15:24;;;;;;;14.70;7.30;;;;;;;;;;4989772;28;20399;-77
2023/12/30 19:17:50;;;;;;;15.93;7.30;;;;;;;;;;4983013;28;20748;-78
2023/12/30 19:20:17;;;;;;;11.90;6.67;;;;;;;;;;4974444;28;20442;-77
2023/12/30 19:22:43;;;;;;;19.70;7.70;;;;;;;;;;4965606;28;20508;-76
2023/12/30 19:25:11;;;;;;;15.20;8.00;;;;;;;;;;4959932;28;20422;-77
2023/12/30 19:27:37;;;;;;;15.03;7.70;;;;;;;;;;4959158;28;20448;-77
2023/12/30 19:30:03;;;;;;;14.73;7.23;;;;;;;;;;4958875;28;20436;-78
2023/12/30 19:32:29;;;;;;;14.70;7.27;;;;;;;;;;4958957;28;20975;-77
2023/12/30 19:34:56;;;;;;;12.53;7.30;;;;;;;;;;4956616;28;20515;-77
2023/12/30 19:37:22;;;;;;;19.13;7.37;;;;;;;;;;4958047;28;20416;-79
2023/12/30 19:39:48;;;;;;;17.23;8.33;;;;;;;;;;4962883;28;20425;-77
2023/12/30 19:42:14;;;;;;;14.37;8.30;;;;;;;;;;4969977;28;20440;-77
2023/12/30 19:44:40;;;;;;;20.13;8.57;;;;;;;;;;4959314;28;20875;-77
2023/12/30 19:47:06;;;;;;;15.37;9.13;;;;;;;;;;4958218;28;20932;-77
2023/12/30 19:49:32;;;;;;;20.73;9.53;;;;;;;;;;4958445;28;20413;-78
2023/12/30 19:51:58;;;;;;;16.80;9.07;;;;;;;;;;4968544;28;20510;-77
2023/12/30 19:54:25;;;;;;;16.80;8.53;;;;;;;;;;4977147;28;20435;-76
2023/12/30 19:56:51;;;;;;;13.80;8.47;;;;;;;;;;4976585;28;20416;-77
2023/12/30 19:59:17;;;;;;;14.90;8.13;;;;;;;;;;4977074;28;20408;-78
2023/12/30 20:01:44;;;;;;;15.37;7.43;;;;;;;;;;4975806;28;20448;-76
2023/12/30 20:04:11;;;;;;;16.97;8.60;;;;;;;;;;4975073;28;20443;-76
2023/12/30 20:06:39;;;;;;;16.67;8.50;;;;;;;;;;4975973;28;20428;-78
2023/12/30 20:09:06;;;;;;;16.27;8.87;;;;;;;;;;4976789;28;20498;-78
2023/12/30 20:11:32;;;;;;;15.83;8.30;;;;;;;;;;4976403;28;20455;-76
2023/12/30 20:13:58;;;;;;;17.80;7.80;;;;;;;;;;4976339;28;20426;-76
2023/12/30 20:16:24;;;;;;;13.77;8.50;;;;;;;;;;4984099;28;20447;-77
2023/12/30 20:18:50;;;;;;;14.80;8.40;;;;;;;;;;4985445;28;20420;-76
2023/12/30 20:21:16;;;;;;;20.07;9.60;;;;;;;;;;4994879;28;20873;-77
2023/12/30 20:23:42;;;;;;;14.57;8.77;;;;;;;;;;4994895;28;20491;-76
2023/12/30 20:26:08;;;;;;;15.90;8.93;;;;;;;;;;4995225;28;20474;-77
2023/12/30 20:28:34;;;;;;;19.70;9.00;;;;;;;;;;4996414;28;20486;-76
2023/12/30 20:31:00;;;;;;;19.37;9.30;;;;;;;;;;4992834;28;20554;-76
2023/12/30 20:33:27;;;;;;;15.57;8.03;;;;;;;;;;4986114;28;20954;-77
2023/12/30 20:35:53;;;;;;;16.47;9.23;;;;;;;;;;4976136;28;20906;-78
2023/12/30 20:38:19;;;;;;;17.87;9.10;;;;;;;;;;4976834;28;20967;-78
2023/12/30 20:40:45;;;;;;;23.50;9.57;;;;;;;;;;4971537;28;20783;-76